Time;durP1;ratioP1;P1;durP2;ratioP2;P2;SDS_P1;SDS_P2;PMS_P1;PMS_P2;Temp;Humidity;BMP_temperature;BMP_pressure;BME280_temperature;BME280_humidity;BME280_pressure;Samples;Min_cycle;Max_cycle;Signal;HPM_P1;HPM_P2
2022/09/01 00:03:36;;;;;;;0.00;0.00;;;;;;;13.68;100.00;102172.31;10379625;28;20062;-80
2022/09/01 00:08:57;;;;;;;0.28;0.20;;;;;;;13.56;100.00;102178.84;10379373;28;20081;-82
2022/09/01 00:14:07;;;;;;;0.00;0.00;;;;;;;13.43;100.00;102182.72;10332075;28;20046;-83
2022/09/01 00:20:06;;;;;;;0.35;0.30;;;;;;;13.32;100.00;102184.91;10330404;28;20042;-82
2022/09/01 00:25:58;;;;;;;0.25;0.25;;;;;;;13.16;100.00;102185.19;10329897;28;20050;-81
2022/09/01 00:31:23;;;;;;;0.08;0.08;;;;;;;13.15;100.00;102188.59;10289403;28;20580;-81
2022/09/01 00:36:25;;;;;;;0.03;0.03;;;;;;;13.11;100.00;102189.31;10311398;28;20461;-82
2022/09/01 00:41:45;;;;;;;0.68;0.45;;;;;;;13.02;100.00;102185.56;10307690;28;20059;-81
2022/09/01 00:47:17;;;;;;;0.17;0.17;;;;;;;12.99;100.00;102189.75;10325910;28;20077;-83
2022/09/01 00:52:43;;;;;;;0.47;0.17;;;;;;;13.02;100.00;102188.16;10328355;28;20510;-82
2022/09/01 00:57:45;;;;;;;0.45;0.10;;;;;;;13.00;100.00;102187.22;10303283;28;20058;-81
2022/09/01 01:02:54;;;;;;;0.55;0.15;;;;;;;12.87;100.00;102185.00;10331160;28;20391;-82
2022/09/01 01:07:57;;;;;;;0.20;0.13;;;;;;;12.87;100.00;102174.66;10315939;28;20050;-82
2022/09/01 01:13:03;;;;;;;0.10;0.10;;;;;;;12.89;100.00;102173.03;10305584;28;20117;-82
2022/09/01 01:18:05;;;;;;;0.20;0.13;;;;;;;12.92;100.00;102170.53;10302650;28;20078;-82
2022/09/01 01:23:28;;;;;;;0.60;0.20;;;;;;;12.95;100.00;102173.25;10310485;28;20533;-81
2022/09/01 01:28:34;;;;;;;1.00;0.30;;;;;;;12.98;100.00;102170.78;10306975;28;20050;-81
2022/09/01 01:33:40;;;;;;;0.10;0.10;;;;;;;12.99;100.00;102169.94;10321214;28;20057;-82
2022/09/01 01:38:48;;;;;;;0.20;0.13;;;;;;;13.12;100.00;102155.72;10322025;28;20065;-82
2022/09/01 01:43:50;;;;;;;0.03;0.03;;;;;;;13.15;100.00;102155.84;10351497;28;20060;-82
2022/09/01 01:48:54;;;;;;;0.45;0.20;;;;;;;13.07;100.00;102157.28;10321683;28;20141;-81
2022/09/01 01:53:58;;;;;;;0.08;0.08;;;;;;;13.07;100.00;102157.28;10322569;28;20055;-82
2022/09/01 01:59:01;;;;;;;0.10;0.03;;;;;;;12.98;100.00;102156.94;10321166;28;20058;-81
2022/09/01 02:04:04;;;;;;;0.08;0.08;;;;;;;12.86;100.00;102162.56;10335662;28;20054;-82
2022/09/01 02:09:29;;;;;;;1.17;0.52;;;;;;;12.81;100.00;102154.63;10325433;28;20563;-82
2022/09/01 02:14:54;;;;;;;0.35;0.35;;;;;;;12.75;100.00;102158.72;10171183;28;20142;-82
2022/09/01 02:19:56;;;;;;;1.40;0.45;;;;;;;12.65;100.00;102166.13;10320811;28;20046;-81
2022/09/01 02:24:59;;;;;;;0.10;0.10;;;;;;;12.59;100.00;102163.31;10320836;28;20426;-82
2022/09/01 02:30:02;;;;;;;0.05;0.05;;;;;;;12.56;100.00;102165.75;10344178;28;20052;-82
2022/09/01 02:35:08;;;;;;;0.17;0.10;;;;;;;12.61;100.00;102161.66;10325324;28;20145;-81
2022/09/01 02:40:10;;;;;;;0.73;0.73;;;;;;;12.54;100.00;102157.09;10323899;28;20042;-82
2022/09/01 02:45:15;;;;;;;0.10;0.10;;;;;;;12.61;100.00;102156.50;10329176;28;20081;-83
2022/09/01 02:50:18;;;;;;;0.00;0.00;;;;;;;12.61;100.00;102155.59;10343115;28;20042;-81
2022/09/01 02:55:21;;;;;;;0.20;0.20;;;;;;;12.57;100.00;102151.16;10315267;28;20141;-82
2022/09/01 03:00:30;;;;;;;0.00;0.00;;;;;;;12.54;100.00;102150.19;10307032;28;20074;-82
2022/09/01 03:05:34;;;;;;;0.10;0.10;;;;;;;12.60;100.00;102148.66;10318863;28;20057;-82
2022/09/01 03:10:40;;;;;;;0.10;0.10;;;;;;;12.49;100.00;102153.41;10318888;28;20105;-81
2022/09/01 03:15:42;;;;;;;0.40;0.28;;;;;;;12.48;100.00;102154.25;10318859;28;20446;-82
2022/09/01 03:20:45;;;;;;;0.30;0.10;;;;;;;12.28;100.00;102156.09;10312193;28;20054;-82
2022/09/01 03:25:47;;;;;;;0.20;0.20;;;;;;;12.26;100.00;102163.75;10322894;28;20813;-82
2022/09/01 03:31:08;;;;;;;0.17;0.17;;;;;;;12.30;100.00;102159.59;10302744;28;20050;-82
2022/09/01 03:36:18;;;;;;;0.00;0.00;;;;;;;12.20;100.00;102161.84;10315399;28;20088;-82
2022/09/01 03:41:27;;;;;;;0.30;0.10;;;;;;;12.17;100.00;102163.41;10301584;28;20061;-81
2022/09/01 03:46:31;;;;;;;0.43;0.35;;;;;;;11.97;100.00;102166.06;10316750;28;20405;-81
2022/09/01 03:51:39;;;;;;;0.00;0.00;;;;;;;12.01;100.00;102173.13;10320020;28;20058;-82
2022/09/01 03:56:42;;;;;;;0.15;0.15;;;;;;;11.90;100.00;102164.03;10312452;28;20050;-82
2022/09/01 04:01:49;;;;;;;0.00;0.00;;;;;;;11.97;100.00;102163.47;10320447;28;20057;-82
2022/09/01 04:06:51;;;;;;;0.10;0.10;;;;;;;11.94;100.00;102165.94;10311516;28;20074;-81
2022/09/01 04:11:53;;;;;;;0.13;0.03;;;;;;;11.87;100.00;102163.91;10315005;28;20062;-81
2022/09/01 04:22:30;;;;;;;0.10;0.10;;;;;;;11.69;100.00;102148.56;10312977;28;20046;-81
2022/09/01 04:27:32;;;;;;;0.20;0.20;;;;;;;11.63;100.00;102156.91;10311137;28;20039;-82
2022/09/01 04:32:39;;;;;;;0.35;0.20;;;;;;;11.53;100.00;102147.91;10317489;28;20057;-82
2022/09/01 04:37:40;;;;;;;1.08;0.45;;;;;;;11.51;100.00;102143.47;10313506;28;20049;-81
2022/09/01 04:42:43;;;;;;;0.47;0.30;;;;;;;11.51;100.00;102138.31;10320200;28;20052;-81
2022/09/01 04:47:46;;;;;;;0.03;0.03;;;;;;;11.36;100.00;102154.03;10322347;28;20054;-81
2022/09/01 04:52:50;;;;;;;0.52;0.20;;;;;;;11.34;100.00;102154.00;10328357;28;20072;-81
2022/09/01 04:58:02;;;;;;;0.30;0.30;;;;;;;11.32;100.00;102158.19;10344571;28;20077;-81
2022/09/01 05:03:10;;;;;;;;;;;;;;;11.33;100.00;102159.06;10357809;28;20699;-81
2022/09/01 05:08:27;;;;;;;0.17;0.15;;;;;;;11.39;100.00;102170.53;10320771;28;20377;-81
2022/09/01 05:13:37;;;;;;;0.22;0.10;;;;;;;11.54;100.00;102166.84;10310268;28;20456;-81
2022/09/01 05:18:43;;;;;;;0.10;0.10;;;;;;;11.68;100.00;102162.28;10323588;28;20046;-81
2022/09/01 05:23:49;;;;;;;0.03;0.03;;;;;;;11.85;100.00;102160.38;10319375;28;20145;-81
2022/09/01 05:28:54;;;;;;;0.70;0.20;;;;;;;12.13;100.00;102157.25;10312350;28;20046;-81
2022/09/01 05:33:56;;;;;;;0.10;0.10;;;;;;;12.33;100.00;102154.53;10318412;28;20054;-82
2022/09/01 05:39:00;;;;;;;0.28;0.20;;;;;;;12.48;100.00;102149.06;10318301;28;20046;-81
2022/09/01 05:44:05;;;;;;;0.43;0.25;;;;;;;12.66;100.00;102154.94;10327460;28;20054;-81
2022/09/01 05:49:12;;;;;;;0.40;0.15;;;;;;;12.83;100.00;102152.13;10316644;28;20073;-81
2022/09/01 05:54:24;;;;;;;0.28;0.28;;;;;;;13.06;100.00;102149.47;10320514;28;20046;-81
2022/09/01 05:59:26;;;;;;;0.40;0.30;;;;;;;13.29;100.00;102147.69;10333122;28;20505;-81
2022/09/01 06:04:39;;;;;;;0.00;0.00;;;;;;;13.59;100.00;102142.69;10313942;28;20054;-81
2022/09/01 06:09:47;;;;;;;0.10;0.10;;;;;;;13.78;100.00;102141.59;10320462;28;20082;-80
2022/09/01 06:14:54;;;;;;;0.10;0.10;;;;;;;13.98;100.00;102143.06;10325583;28;20050;-81
2022/09/01 06:19:56;;;;;;;0.60;0.30;;;;;;;14.11;100.00;102134.88;10320005;28;20054;-81
2022/09/01 06:24:59;;;;;;;0.55;0.30;;;;;;;14.47;100.00;102130.72;10321474;28;20085;-82
2022/09/01 06:30:13;;;;;;;0.52;0.10;;;;;;;14.72;100.00;102132.34;10318712;28;20244;-82
2022/09/01 06:35:28;;;;;;;0.43;0.28;;;;;;;14.84;100.00;102131.81;10317769;28;20050;-82
2022/09/01 06:40:34;;;;;;;0.45;0.20;;;;;;;15.26;100.00;102135.53;10318110;28;20502;-82
2022/09/01 06:45:48;;;;;;;0.20;0.20;;;;;;;15.39;100.00;102138.50;10321157;28;20064;-82
2022/09/01 06:50:51;;;;;;;0.88;0.25;;;;;;;15.63;100.00;102132.16;10327000;28;20050;-80
2022/09/01 06:56:13;;;;;;;0.65;0.45;;;;;;;16.48;100.00;102130.63;10329761;28;20054;-82
2022/09/01 07:01:18;;;;;;;0.20;0.20;;;;;;;16.59;100.00;102126.56;10321852;28;20065;-82
2022/09/01 07:06:26;;;;;;;0.10;0.08;;;;;;;16.90;100.00;102123.66;10302990;28;20054;-81
2022/09/01 07:11:51;;;;;;;0.47;0.30;;;;;;;17.30;100.00;102129.66;10327767;28;20053;-81
2022/09/01 07:17:14;;;;;;;0.30;0.15;;;;;;;18.10;100.00;102113.53;10304980;28;20113;-82
2022/09/01 07:22:23;;;;;;;0.00;0.00;;;;;;;19.32;97.91;102122.78;10328354;28;20052;-79
2022/09/01 07:27:49;;;;;;;0.17;0.17;;;;;;;19.10;97.27;102125.19;10312837;28;20402;-81
2022/09/01 07:32:54;;;;;;;12.50;11.88;;;;;;;19.81;90.02;102124.91;10306844;28;20054;-81
2022/09/01 07:38:04;;;;;;;0.03;0.03;;;;;;;20.41;87.62;102113.94;10319094;28;20409;-79
2022/09/01 07:43:27;;;;;;;0.35;0.10;;;;;;;20.32;81.62;102113.91;10329843;28;20093;-80
2022/09/01 07:48:54;;;;;;;0.47;0.20;;;;;;;20.64;85.47;102115.78;10330882;28;20054;-80
2022/09/01 07:54:18;;;;;;;0.00;0.00;;;;;;;21.37;73.22;102116.81;10318678;28;20510;-81
2022/09/01 07:59:20;;;;;;;0.10;0.10;;;;;;;21.31;74.60;102108.94;10317953;28;20055;-81
2022/09/01 08:04:39;;;;;;;0.28;0.20;;;;;;;21.66;71.09;102115.94;10314724;28;20521;-80
2022/09/01 08:09:41;;;;;;;0.10;0.10;;;;;;;21.35;67.13;102115.91;10306284;28;20058;-83
2022/09/01 08:14:46;;;;;;;0.35;0.32;;;;;;;22.18;64.33;102110.56;10311331;28;20050;-81
2022/09/01 08:19:48;;;;;;;0.47;0.10;;;;;;;22.10;60.58;102112.34;10306620;28;20046;-81
2022/09/01 08:25:04;;;;;;;0.55;0.28;;;;;;;22.84;62.66;102120.81;10313259;28;20469;-82
2022/09/01 08:30:09;;;;;;;0.45;0.30;;;;;;;23.02;54.62;102120.69;10313674;28;20046;-83
2022/09/01 08:35:12;;;;;;;0.00;0.00;;;;;;;23.27;53.11;102120.56;10298706;28;20485;-81
2022/09/01 08:40:21;;;;;;;0.20;0.20;;;;;;;22.94;52.86;102123.34;10308101;28;20061;-82
2022/09/01 08:45:30;;;;;;;0.00;0.00;;;;;;;23.16;50.17;102122.34;10308656;28;20058;-83
2022/09/01 08:50:37;;;;;;;0.00;0.00;;;;;;;23.39;50.31;102125.72;10314212;28;20050;-84
2022/09/01 08:56:08;;;;;;;0.00;0.00;;;;;;;23.85;48.83;102113.00;10313719;28;20133;-82
2022/09/01 09:01:28;;;;;;;0.00;0.00;;;;;;;23.38;46.50;102118.69;10313668;28;20054;-84
2022/09/01 09:06:47;;;;;;;0.00;0.00;;;;;;;23.43;47.01;102106.38;10322468;28;20058;-82
2022/09/01 09:12:01;;;;;;;0.00;0.00;;;;;;;24.50;47.79;102104.38;10298229;28;20050;-82
2022/09/01 09:17:04;;;;;;;2.95;0.20;;;;;;;23.26;43.56;102108.28;10330465;28;20137;-83
2022/09/01 09:22:12;;;;;;;0.08;0.08;;;;;;;23.92;47.70;102093.63;10297443;28;20113;-83
2022/09/01 09:27:33;;;;;;;0.00;0.00;;;;;;;23.43;47.15;102097.63;10275113;28;20062;-84
2022/09/01 09:32:54;;;;;;;0.50;0.20;;;;;;;24.78;44.42;102085.56;10332526;28;20054;-85
2022/09/01 09:38:27;;;;;;;0.00;0.00;;;;;;;24.10;40.86;102081.16;10328186;28;20050;-82
2022/09/01 09:43:34;;;;;;;0.00;0.00;;;;;;;24.64;42.22;102072.56;10307658;28;20070;-84
2022/09/01 09:48:36;;;;;;;0.10;0.00;;;;;;;23.88;42.82;102065.59;10298209;28;20072;-84
2022/09/01 09:53:41;;;;;;;0.00;0.00;;;;;;;24.53;42.73;102064.81;10307123;28;20060;-80
2022/09/01 09:58:45;;;;;;;2.13;0.43;;;;;;;23.50;41.49;102058.97;10335689;28;20050;-84
2022/09/01 10:03:54;;;;;;;6.07;0.20;;;;;;;24.88;41.67;102050.28;10332080;28;20063;-82
2022/09/01 10:08:57;;;;;;;0.00;0.00;;;;;;;24.01;40.08;102061.97;10333401;28;20049;-81
2022/09/01 10:13:58;;;;;;;0.10;0.10;;;;;;;24.68;39.14;102040.91;10333377;28;20505;-82
2022/09/01 10:19:01;;;;;;;0.10;0.10;;;;;;;24.14;39.50;102041.63;10307327;28;20093;-83
2022/09/01 10:24:14;;;;;;;0.00;0.00;;;;;;;25.89;40.81;102035.28;10314237;28;20133;-83
2022/09/01 10:29:28;;;;;;;0.00;0.00;;;;;;;24.93;37.60;102040.50;10319904;28;20056;-82
2022/09/01 10:34:37;;;;;;;1.73;0.20;;;;;;;25.26;38.70;102035.56;10320174;28;20054;-82
2022/09/01 10:40:15;;;;;;;0.20;0.10;;;;;;;25.23;38.33;102035.63;10315739;28;20062;-81
2022/09/01 10:45:32;;;;;;;0.32;0.32;;;;;;;25.32;37.39;102027.53;10333340;28;20060;-82
2022/09/01 10:50:34;;;;;;;0.00;0.00;;;;;;;24.64;39.98;102031.28;10332816;28;20371;-82
2022/09/01 10:55:42;;;;;;;0.10;0.10;;;;;;;24.59;37.95;102022.56;10321240;28;20061;-85
2022/09/01 11:00:48;;;;;;;0.00;0.00;;;;;;;25.42;36.53;102019.50;10315429;28;20077;-84
2022/09/01 11:06:48;;;;;;;0.22;0.13;;;;;;;24.96;39.58;102019.38;10318021;28;20149;-83
2022/09/01 11:12:27;;;;;;;0.00;0.00;;;;;;;25.19;39.40;102015.47;10333705;28;20054;-83
2022/09/01 11:17:53;;;;;;;0.10;0.03;;;;;;;25.72;37.43;102001.34;10337417;28;20054;-79
2022/09/01 11:23:00;;;;;;;1.25;0.17;;;;;;;25.53;36.30;102006.09;10348124;28;20104;-79
2022/09/01 11:28:08;;;;;;;0.00;0.00;;;;;;;25.41;35.97;102000.16;10328487;28;20101;-82
2022/09/01 11:33:15;;;;;;;0.00;0.00;;;;;;;25.76;35.77;101997.72;10339814;28;20074;-79
2022/09/01 11:38:18;;;;;;;0.00;0.00;;;;;;;25.51;37.25;102003.47;10349840;28;20120;-82
2022/09/01 11:43:20;;;;;;;2.00;0.63;;;;;;;25.70;35.23;101982.88;10324405;28;20406;-83
2022/09/01 11:48:27;;;;;;;0.10;0.10;;;;;;;25.69;34.73;101985.53;10339537;28;20038;-80
2022/09/01 11:53:29;;;;;;;0.00;0.00;;;;;;;24.26;36.56;101992.34;10349973;28;20049;-82
2022/09/01 11:58:37;;;;;;;0.10;0.10;;;;;;;24.86;36.64;101983.53;10344909;28;20501;-83
2022/09/01 12:03:39;;;;;;;0.10;0.10;;;;;;;25.35;34.75;101979.13;10344111;28;20524;-81
2022/09/01 12:08:51;;;;;;;0.10;0.03;;;;;;;25.99;35.62;101978.75;10324114;28;20050;-82
2022/09/01 12:14:03;;;;;;;0.00;0.00;;;;;;;25.37;36.32;101981.72;10338444;28;20111;-81
2022/09/01 12:19:25;;;;;;;0.10;0.10;;;;;;;25.68;35.17;101966.22;10329662;28;20052;-81
2022/09/01 12:24:53;;;;;;;0.00;0.00;;;;;;;25.60;35.72;101966.38;10329008;28;20057;-81
2022/09/01 12:29:55;;;;;;;0.22;0.22;;;;;;;25.37;35.23;101968.53;10326762;28;20050;-80
2022/09/01 12:35:04;;;;;;;0.10;0.10;;;;;;;25.44;36.47;101959.66;10329508;28;20066;-80
2022/09/01 12:40:32;;;;;;;0.00;0.00;;;;;;;24.44;35.59;101962.22;10326088;28;20054;-80
2022/09/01 12:45:46;;;;;;;0.32;0.32;;;;;;;25.48;35.06;101956.06;10327291;28;20058;-81
2022/09/01 12:50:49;;;;;;;0.00;0.00;;;;;;;25.74;35.02;101957.28;10328657;28;20088;-79
2022/09/01 12:55:58;;;;;;;0.10;0.10;;;;;;;24.91;34.38;101955.31;10330361;28;20066;-79
2022/09/01 13:01:16;;;;;;;0.00;0.00;;;;;;;25.51;34.40;101945.44;10327201;28;20054;-80
2022/09/01 13:06:18;;;;;;;1.50;0.20;;;;;;;25.32;35.16;101939.63;10328861;28;20051;-80
2022/09/01 13:11:19;;;;;;;0.00;0.00;;;;;;;25.02;36.36;101937.56;10310794;28;20062;-80
2022/09/01 13:16:21;;;;;;;0.28;0.17;;;;;;;25.13;35.53;101931.22;10328293;28;20054;-79
2022/09/01 13:21:23;;;;;;;0.40;0.35;;;;;;;25.30;36.03;101923.84;10328468;28;20167;-80
2022/09/01 13:26:25;;;;;;;0.00;0.00;;;;;;;24.98;35.77;101914.75;10326800;28;20057;-79
2022/09/01 13:31:29;;;;;;;0.30;0.10;;;;;;;25.44;35.54;101928.88;10332963;28;20050;-79
2022/09/01 13:36:32;;;;;;;0.03;0.03;;;;;;;25.05;35.96;101919.94;10339590;28;20054;-81
2022/09/01 13:41:53;;;;;;;0.00;0.00;;;;;;;24.73;37.74;101913.47;10335576;28;20050;-81
2022/09/01 13:46:57;;;;;;;0.43;0.20;;;;;;;25.05;38.04;101896.22;10316425;28;20055;-80
2022/09/01 13:52:01;;;;;;;0.05;0.05;;;;;;;24.81;38.22;101901.91;10334943;28;20042;-81
2022/09/01 13:57:03;;;;;;;0.00;0.00;;;;;;;24.39;41.18;101893.81;10334026;28;20062;-80
2022/09/01 14:02:05;;;;;;;0.10;0.08;;;;;;;24.94;39.35;101891.16;10327213;28;20042;-80
2022/09/01 14:07:06;;;;;;;0.00;0.00;;;;;;;24.89;37.18;101891.22;10317874;28;20054;-83
2022/09/01 14:12:08;;;;;;;0.10;0.10;;;;;;;25.00;39.17;101881.34;10334604;28;20505;-80
2022/09/01 14:17:10;;;;;;;0.20;0.20;;;;;;;24.38;36.55;101887.69;10313722;28;20054;-81
2022/09/01 14:22:11;;;;;;;0.00;0.00;;;;;;;24.33;38.50;101878.97;10334255;28;20509;-79
2022/09/01 14:27:13;;;;;;;0.00;0.00;;;;;;;24.37;38.55;101878.03;10334616;28;20054;-80
2022/09/01 14:32:16;;;;;;;0.03;0.03;;;;;;;23.81;39.11;101875.34;10335068;28;20042;-82
2022/09/01 14:37:18;;;;;;;0.60;0.10;;;;;;;24.28;37.22;101874.66;10341162;28;20065;-85
2022/09/01 14:42:20;;;;;;;0.15;0.08;;;;;;;24.50;39.68;101864.66;10333346;28;20054;-83
2022/09/01 14:47:24;;;;;;;0.22;0.10;;;;;;;24.48;37.60;101867.34;10333355;28;20069;-83
2022/09/01 14:52:26;;;;;;;0.08;0.08;;;;;;;24.82;37.07;101855.34;10335050;28;20058;-85
2022/09/01 14:57:27;;;;;;;0.30;0.10;;;;;;;24.85;35.60;101844.72;10326578;28;20133;-80
2022/09/01 15:02:41;;;;;;;0.03;0.03;;;;;;;24.63;37.13;101844.25;10334925;28;20494;-79
2022/09/01 15:07:44;;;;;;;0.10;0.10;;;;;;;24.77;36.57;101842.25;10336083;28;20062;-80
2022/09/01 15:12:48;;;;;;;0.10;0.00;;;;;;;24.81;38.20;101838.66;10337581;28;20062;-80
2022/09/01 15:17:50;;;;;;;0.43;0.30;;;;;;;24.91;36.64;101838.47;10332139;28;20070;-81
2022/09/01 15:22:51;;;;;;;0.00;0.00;;;;;;;24.89;37.45;101829.72;10314257;28;20057;-80
2022/09/01 15:27:53;;;;;;;0.10;0.10;;;;;;;24.51;36.27;101832.16;10317999;28;20046;-82
2022/09/01 15:32:55;;;;;;;0.10;0.05;;;;;;;24.54;38.70;101824.19;10327342;28;20050;-80
2022/09/01 15:37:59;;;;;;;0.00;0.00;;;;;;;24.50;36.28;101827.78;10338056;28;20474;-80
2022/09/01 15:43:04;;;;;;;0.00;0.00;;;;;;;24.45;36.49;101824.38;10334964;28;20066;-81
2022/09/01 15:48:06;;;;;;;0.20;0.00;;;;;;;24.34;36.53;101819.28;10340606;28;20498;-81
2022/09/01 15:53:07;;;;;;;0.32;0.22;;;;;;;24.20;36.06;101825.63;10336126;28;20133;-83
2022/09/01 15:58:14;;;;;;;0.68;0.63;;;;;;;24.14;36.92;101819.63;10335904;28;20569;-83
2022/09/01 16:03:16;;;;;;;0.00;0.00;;;;;;;23.60;37.43;101818.63;10326231;28;20137;-82
2022/09/01 16:08:18;;;;;;;0.17;0.10;;;;;;;24.04;37.51;101809.22;10308438;28;20153;-82
2022/09/01 16:13:22;;;;;;;0.25;0.10;;;;;;;24.15;37.13;101816.09;10327816;28;20050;-82
2022/09/01 16:18:31;;;;;;;0.40;0.20;;;;;;;23.89;37.60;101804.19;10320650;28;20058;-82
2022/09/01 16:23:40;;;;;;;0.10;0.10;;;;;;;23.75;37.37;101805.28;10316090;28;20058;-85
2022/09/01 16:28:49;;;;;;;0.00;0.00;;;;;;;23.59;38.37;101796.75;10323425;28;20100;-82
2022/09/01 16:33:55;;;;;;;0.00;0.00;;;;;;;23.73;38.02;101793.03;10329581;28;20502;-82
2022/09/01 16:39:15;;;;;;;0.00;0.00;;;;;;;23.57;38.19;101797.63;10322313;28;20050;-82
2022/09/01 16:44:17;;;;;;;0.10;0.00;;;;;;;23.39;37.95;101786.50;10329649;28;20053;-81
2022/09/01 16:49:50;;;;;;;0.10;0.10;;;;;;;23.33;38.29;101785.69;10323952;28;20054;-81
2022/09/01 16:55:28;;;;;;;0.00;0.00;;;;;;;23.19;37.86;101791.16;10329877;28;20513;-83
2022/09/01 17:00:49;;;;;;;0.00;0.00;;;;;;;23.13;39.30;101781.56;10331646;28;20630;-82
2022/09/01 17:05:55;;;;;;;0.28;0.00;;;;;;;23.01;38.16;101779.09;10338411;28;20225;-83
2022/09/01 17:11:08;;;;;;;0.10;0.10;;;;;;;22.91;38.15;101787.06;10335743;28;20054;-80
2022/09/01 17:16:38;;;;;;;0.10;0.10;;;;;;;22.86;40.13;101788.00;10332889;28;20097;-82
2022/09/01 17:21:52;;;;;;;0.22;0.10;;;;;;;22.71;40.03;101784.66;10358445;28;20570;-81
2022/09/01 17:27:06;;;;;;;0.10;0.10;;;;;;;22.62;40.16;101790.00;10335788;28;20066;-82
2022/09/01 17:32:40;;;;;;;0.00;0.00;;;;;;;22.40;40.95;101784.09;10350323;28;20411;-83
2022/09/01 17:37:55;;;;;;;0.00;0.00;;;;;;;22.29;40.61;101789.44;10343389;28;20100;-81
2022/09/01 17:43:15;;;;;;;0.00;0.00;;;;;;;22.15;41.87;101779.91;10347029;28;20058;-82
2022/09/01 17:48:32;;;;;;;0.00;0.00;;;;;;;21.89;42.56;101782.75;10346486;28;20498;-81
2022/09/01 17:53:58;;;;;;;0.00;0.00;;;;;;;21.62;44.47;101791.69;10327267;28;20058;-83
2022/09/01 17:59:10;;;;;;;0.00;0.00;;;;;;;21.30;46.69;101784.81;10345377;28;20604;-82
2022/09/01 18:04:37;;;;;;;0.00;0.00;;;;;;;21.09;48.70;101784.03;10359117;28;20489;-83
2022/09/01 18:09:47;;;;;;;0.30;0.13;;;;;;;20.82;51.93;101791.09;10347206;28;20112;-83
2022/09/01 18:15:00;;;;;;;0.00;0.00;;;;;;;20.50;53.25;101785.88;10341430;28;20069;-83
2022/09/01 18:20:31;;;;;;;0.00;0.00;;;;;;;20.26;52.82;101791.16;10330694;28;20097;-82
2022/09/01 18:25:56;;;;;;;0.28;0.03;;;;;;;19.99;55.71;101781.56;10341850;28;20047;-82
2022/09/01 18:31:07;;;;;;;0.08;0.00;;;;;;;20.02;54.98;101796.38;10344900;28;20058;-83
2022/09/01 18:36:21;;;;;;;0.00;0.00;;;;;;;19.85;56.06;101799.84;10346648;28;20413;-84
2022/09/01 18:41:45;;;;;;;0.00;0.00;;;;;;;19.33;60.40;101801.41;10345884;28;20050;-84
2022/09/01 18:47:03;;;;;;;0.00;0.00;;;;;;;19.32;60.56;101804.03;10344453;28;20101;-83
2022/09/01 18:52:32;;;;;;;0.00;0.00;;;;;;;19.08;62.81;101813.50;10340889;28;20527;-84
2022/09/01 18:57:39;;;;;;;0.53;0.20;;;;;;;18.97;65.72;101805.59;10329005;28;20059;-84
2022/09/01 19:02:58;;;;;;;0.38;0.17;;;;;;;18.58;71.93;101811.41;10329114;28;20042;-83
2022/09/01 19:08:18;;;;;;;0.00;0.00;;;;;;;18.42;69.95;101815.66;10344274;28;20053;-83
2022/09/01 19:13:35;;;;;;;0.05;0.00;;;;;;;18.17;75.39;101813.69;10337296;28;20304;-83
2022/09/01 19:18:56;;;;;;;0.10;0.05;;;;;;;18.24;72.35;101815.50;10308192;28;20054;-83
2022/09/01 19:24:09;;;;;;;0.00;0.00;;;;;;;18.20;72.23;101829.38;10332078;28;20104;-83
2022/09/01 19:29:15;;;;;;;0.00;0.00;;;;;;;18.02;76.41;101832.69;10307183;28;20054;-84
2022/09/01 19:34:40;;;;;;;0.10;0.10;;;;;;;17.88;78.79;101836.88;10334012;28;20498;-84
2022/09/01 19:39:45;;;;;;;0.00;0.00;;;;;;;17.76;80.59;101835.88;10308485;28;20050;-84
2022/09/01 19:45:06;;;;;;;0.00;0.00;;;;;;;17.39;84.34;101838.03;10310733;28;20057;-84
2022/09/01 19:50:34;;;;;;;0.13;0.13;;;;;;;17.11;85.99;101842.88;10332179;28;20046;-84
2022/09/01 19:55:53;;;;;;;0.30;0.20;;;;;;;16.83;91.14;101836.38;10333668;28;20069;-84
2022/09/01 20:00:58;;;;;;;0.00;0.00;;;;;;;16.59;93.23;101842.06;10318027;28;20051;-84
2022/09/01 20:06:12;;;;;;;0.00;0.00;;;;;;;16.38;93.58;101837.41;10322992;28;20525;-84
2022/09/01 20:11:33;;;;;;;0.00;0.00;;;;;;;16.12;95.79;101843.03;10307800;28;20089;-84
2022/09/01 20:16:44;;;;;;;0.00;0.00;;;;;;;16.30;95.64;101835.56;10329867;28;20066;-84
2022/09/01 20:21:46;;;;;;;0.38;0.20;;;;;;;16.17;97.89;101839.66;10323485;28;20050;-85
2022/09/01 20:26:58;;;;;;;0.30;0.22;;;;;;;16.23;96.35;101838.91;10321648;28;20058;-84
2022/09/01 20:32:00;;;;;;;0.00;0.00;;;;;;;16.33;95.45;101834.75;10310913;28;20061;-84
2022/09/01 20:37:16;;;;;;;0.13;0.10;;;;;;;16.24;94.25;101834.56;10317817;28;20054;-84
2022/09/01 20:42:30;;;;;;;0.08;0.08;;;;;;;16.27;95.11;101830.31;10308007;28;20046;-84
2022/09/01 20:47:32;;;;;;;0.00;0.00;;;;;;;16.13;95.98;101827.44;10331172;28;20046;-83
2022/09/01 20:53:05;;;;;;;0.10;0.10;;;;;;;16.28;92.63;101832.06;10330651;28;20061;-84
2022/09/01 20:58:21;;;;;;;0.03;0.03;;;;;;;16.04;95.13;101836.81;10327551;28;20058;-84
2022/09/01 21:03:33;;;;;;;0.00;0.00;;;;;;;16.20;92.08;101833.66;10308755;28;20105;-83
2022/09/01 21:09:00;;;;;;;0.28;0.20;;;;;;;15.98;95.12;101834.97;10329621;28;20169;-84
2022/09/01 21:14:31;;;;;;;0.00;0.00;;;;;;;16.00;94.22;101831.59;10327096;28;20502;-83
2022/09/01 21:19:45;;;;;;;0.00;0.00;;;;;;;15.78;95.83;101834.59;10256754;28;20054;-83
2022/09/01 21:24:46;;;;;;;0.10;0.10;;;;;;;15.63;96.99;101835.16;10325651;28;20058;-83
2022/09/01 21:29:58;;;;;;;0.00;0.00;;;;;;;15.58;98.90;101839.38;10323139;28;20445;-83
2022/09/01 21:35:07;;;;;;;0.95;0.25;;;;;;;15.61;98.37;101835.13;10325412;28;20057;-83
2022/09/01 21:40:21;;;;;;;0.05;0.05;;;;;;;15.44;98.81;101831.31;10328083;28;20055;-83
2022/09/01 21:45:23;;;;;;;0.00;0.00;;;;;;;15.38;100.00;101822.53;10345727;28;20046;-82
2022/09/01 21:50:29;;;;;;;0.00;0.00;;;;;;;15.26;100.00;101824.00;10322281;28;20097;-83
2022/09/01 21:55:31;;;;;;;0.22;0.22;;;;;;;15.37;99.50;101822.53;10311194;28;20054;-84
2022/09/01 22:00:38;;;;;;;0.00;0.00;;;;;;;15.44;98.86;101824.41;10349503;28;20462;-84
2022/09/01 22:05:40;;;;;;;0.00;0.00;;;;;;;15.37;98.32;101820.78;10312298;28;20549;-82
2022/09/01 22:10:48;;;;;;;0.28;0.05;;;;;;;15.33;98.78;101808.59;10336766;28;20097;-83
2022/09/01 22:15:52;;;;;;;0.80;0.30;;;;;;;15.12;100.00;101805.53;10328361;28;20051;-82
2022/09/01 22:21:11;;;;;;;0.38;0.32;;;;;;;15.04;100.00;101808.84;10336613;28;20121;-81
2022/09/01 22:26:37;;;;;;;0.05;0.05;;;;;;;15.09;100.00;101805.47;10333632;28;20093;-81
2022/09/01 22:31:40;;;;;;;0.00;0.00;;;;;;;15.18;100.00;101795.31;10322112;28;20078;-81
2022/09/01 22:36:46;;;;;;;0.10;0.00;;;;;;;14.97;100.00;101798.28;10335632;28;20054;-82
2022/09/01 22:41:47;;;;;;;0.00;0.00;;;;;;;15.06;100.00;101801.97;10319969;28;20062;-83
2022/09/01 22:46:49;;;;;;;0.00;0.00;;;;;;;14.93;100.00;101799.09;10348405;28;20484;-83
2022/09/01 22:51:50;;;;;;;0.00;0.00;;;;;;;14.97;100.00;101798.28;10336636;28;20046;-83
2022/09/01 22:56:52;;;;;;;0.10;0.10;;;;;;;14.85;100.00;101796.31;10347870;28;20054;-82
2022/09/01 23:02:00;;;;;;;0.00;0.00;;;;;;;14.85;100.00;101783.34;10333094;28;20059;-83
2022/09/01 23:07:03;;;;;;;0.32;0.10;;;;;;;14.94;100.00;101780.94;10350020;28;20054;-83
2022/09/01 23:12:05;;;;;;;0.20;0.20;;;;;;;14.84;100.00;101787.66;10363881;28;20050;-83
2022/09/01 23:17:07;;;;;;;0.00;0.00;;;;;;;14.63;100.00;101781.94;10326144;28;20049;-84
2022/09/01 23:22:09;;;;;;;0.00;0.00;;;;;;;14.66;100.00;101774.25;10352000;28;20449;-84
2022/09/01 23:27:11;;;;;;;0.00;0.00;;;;;;;14.50;100.00;101768.69;10345049;28;20046;-83
2022/09/01 23:32:12;;;;;;;0.00;0.00;;;;;;;14.41;100.00;101778.81;10310901;28;20081;-84
2022/09/01 23:37:14;;;;;;;0.00;0.00;;;;;;;14.44;100.00;101764.22;10347863;28;20494;-83
2022/09/01 23:42:22;;;;;;;0.10;0.05;;;;;;;14.36;100.00;101759.69;10336318;28;20069;-83
2022/09/01 23:47:23;;;;;;;0.15;0.15;;;;;;;14.25;100.00;101752.56;10334678;28;20116;-83